createdAt,value
2018-07-28T00:00:08.482Z,22.13
2018-07-28T00:02:37.882Z,21.80
2018-07-28T00:05:07.850Z,22.00
2018-07-28T00:07:37.001Z,17.43
2018-07-28T00:10:09.851Z,15.27
2018-07-28T00:12:38.970Z,20.43
2018-07-28T00:15:10.078Z,21.60
2018-07-28T00:17:39.899Z,18.60
2018-07-28T00:20:10.672Z,18.27
2018-07-28T00:22:39.893Z,18.93
2018-07-28T00:25:10.448Z,15.30
2018-07-28T00:27:39.672Z,23.17
2018-07-28T00:30:10.782Z,24.10
2018-07-28T00:32:39.993Z,18.47
2018-07-28T00:35:09.178Z,19.83
2018-07-28T00:37:38.386Z,23.40
2018-07-28T00:40:08.194Z,13.17
2018-07-28T00:42:37.711Z,19.07
2018-07-28T00:45:07.490Z,18.80
2018-07-28T00:47:36.626Z,24.30
2018-07-28T00:50:06.778Z,17.90
2018-07-28T00:52:36.072Z,18.53
2018-07-28T00:55:06.086Z,23.87
2018-07-28T00:57:35.352Z,15.90
2018-07-28T01:00:05.633Z,19.30
2018-07-28T01:02:34.826Z,24.77
2018-07-28T01:05:04.134Z,18.97
2018-07-28T01:07:33.220Z,16.97
2018-07-28T01:10:02.396Z,19.67
2018-07-28T01:12:31.498Z,19.00
2018-07-28T01:15:00.773Z,17.10
2018-07-28T01:17:29.926Z,21.03
2018-07-28T01:19:59.120Z,19.63
2018-07-28T01:22:28.303Z,18.47
2018-07-28T01:24:57.402Z,15.53
2018-07-28T01:27:26.494Z,20.33
2018-07-28T01:29:55.702Z,17.67
2018-07-28T01:32:24.881Z,16.93
2018-07-28T01:34:53.947Z,17.67
2018-07-28T01:37:23.100Z,17.10
2018-07-28T01:39:52.278Z,15.43
2018-07-28T01:42:21.354Z,17.43
2018-07-28T01:44:50.568Z,17.53
2018-07-28T01:47:19.665Z,17.80
2018-07-28T01:49:48.895Z,19.90
2018-07-28T01:52:18.027Z,20.17
2018-07-28T01:54:47.147Z,14.10
2018-07-28T01:57:16.359Z,14.70
2018-07-28T01:59:45.473Z,14.27
2018-07-28T02:02:14.750Z,19.43
2018-07-28T02:04:43.873Z,15.03
2018-07-28T02:07:13.034Z,15.63
2018-07-28T02:09:42.155Z,15.53
2018-07-28T02:12:11.341Z,16.40
2018-07-28T02:14:40.463Z,17.67
2018-07-28T02:17:09.579Z,17.83
2018-07-28T02:19:38.751Z,10.83
2018-07-28T02:22:08.131Z,15.97
2018-07-28T02:24:37.123Z,14.97
2018-07-28T02:27:06.349Z,12.57
2018-07-28T02:29:35.483Z,14.80
2018-07-28T02:32:04.530Z,10.73
2018-07-28T02:34:33.713Z,11.33
2018-07-28T02:37:02.911Z,14.60
2018-07-28T02:39:32.000Z,14.70
2018-07-28T02:42:01.192Z,14.37
2018-07-28T02:44:30.408Z,11.53
2018-07-28T02:46:59.591Z,10.13
2018-07-28T02:49:28.791Z,12.83
2018-07-28T02:51:57.867Z,16.40
2018-07-28T02:54:27.191Z,10.07
2018-07-28T02:56:56.754Z,18.20
2018-07-28T02:59:26.139Z,15.07
2018-07-28T03:01:55.636Z,13.87
2018-07-28T03:04:25.005Z,15.13
2018-07-28T03:06:54.302Z,11.53
2018-07-28T03:09:23.629Z,10.37
2018-07-28T03:11:53.024Z,18.83
2018-07-28T03:14:22.399Z,13.43
2018-07-28T03:16:51.803Z,16.40
2018-07-28T03:19:21.181Z,15.23
2018-07-28T03:21:50.517Z,15.00
2018-07-28T03:24:19.941Z,15.97
2018-07-28T03:26:49.145Z,10.00
2018-07-28T03:29:18.370Z,12.60
2018-07-28T03:31:47.635Z,20.17
2018-07-28T03:34:16.975Z,17.97
2018-07-28T03:36:46.321Z,16.00
2018-07-28T03:39:15.563Z,12.23
2018-07-28T03:41:44.940Z,14.43
2018-07-28T03:44:14.193Z,13.97
2018-07-28T03:46:43.539Z,15.13
2018-07-28T03:49:12.867Z,15.17
2018-07-28T03:51:42.285Z,12.23
2018-07-28T03:54:11.530Z,11.57
2018-07-28T03:56:40.760Z,11.83
2018-07-28T03:59:10.319Z,11.93
2018-07-28T04:01:39.683Z,9.83
2018-07-28T04:04:09.273Z,12.57
2018-07-28T04:06:38.763Z,15.37
2018-07-28T04:09:09.070Z,13.67
2018-07-28T04:11:38.303Z,9.70
2018-07-28T04:14:07.527Z,12.17
2018-07-28T04:16:36.929Z,12.23
2018-07-28T04:19:06.263Z,11.67
2018-07-28T04:21:35.487Z,11.30
2018-07-28T04:24:04.825Z,7.77
2018-07-28T04:26:34.099Z,16.93
2018-07-28T04:29:03.318Z,10.50
2018-07-28T04:31:32.591Z,11.00
2018-07-28T04:34:01.829Z,12.03
2018-07-28T04:36:31.062Z,9.50
2018-07-28T04:39:00.257Z,11.00
2018-07-28T04:41:29.611Z,11.07
2018-07-28T04:43:58.909Z,9.07
2018-07-28T04:46:28.409Z,9.70
2018-07-28T04:48:57.695Z,11.60
2018-07-28T04:51:26.909Z,11.60
2018-07-28T04:53:56.309Z,9.53
2018-07-28T04:56:25.843Z,12.27
2018-07-28T04:58:55.125Z,10.10
2018-07-28T05:01:24.415Z,12.83
2018-07-28T05:03:53.755Z,13.47
2018-07-28T05:06:22.947Z,11.83
2018-07-28T05:08:52.421Z,13.73
2018-07-28T05:11:21.540Z,15.33
2018-07-28T05:13:50.632Z,13.40
2018-07-28T05:16:19.738Z,13.20
2018-07-28T05:18:49.762Z,18.00
2018-07-28T05:21:18.760Z,13.30
2018-07-28T05:23:47.879Z,16.30
2018-07-28T05:26:17.135Z,13.67
2018-07-28T05:28:46.251Z,10.93
2018-07-28T05:31:15.322Z,14.53
2018-07-28T05:33:44.420Z,14.63
2018-07-28T05:36:13.573Z,13.80
2018-07-28T05:38:42.723Z,14.67
2018-07-28T05:41:11.780Z,14.87
2018-07-28T05:43:41.010Z,13.23
2018-07-28T05:46:10.088Z,13.87
2018-07-28T05:48:39.205Z,13.83
2018-07-28T05:51:08.285Z,15.77
2018-07-28T05:53:39.232Z,10.67
2018-07-28T05:56:10.502Z,10.47
2018-07-28T05:58:40.232Z,10.53
2018-07-28T06:01:09.324Z,10.97
2018-07-28T06:03:38.603Z,13.67
2018-07-28T06:06:07.738Z,14.67
2018-07-28T06:08:36.953Z,16.77
2018-07-28T06:11:06.138Z,9.43
2018-07-28T06:13:35.310Z,13.10
2018-07-28T06:16:04.420Z,12.80
2018-07-28T06:18:33.634Z,14.20
2018-07-28T06:21:02.860Z,13.53
2018-07-28T06:23:32.103Z,12.60
2018-07-28T06:26:01.371Z,9.33
2018-07-28T06:28:30.859Z,13.23
2018-07-28T06:31:00.144Z,11.67
2018-07-28T06:33:29.304Z,16.03
2018-07-28T06:35:58.450Z,19.87
2018-07-28T06:38:27.642Z,15.13
2018-07-28T06:40:56.828Z,12.80
2018-07-28T06:43:26.012Z,20.70
2018-07-28T06:45:55.194Z,12.07
2018-07-28T06:48:24.315Z,15.93
2018-07-28T06:50:53.725Z,15.90
2018-07-28T06:53:22.894Z,14.87
2018-07-28T06:55:52.130Z,14.80
2018-07-28T06:58:21.578Z,17.67
2018-07-28T07:00:50.681Z,68.53
2018-07-28T07:03:19.814Z,56.07
2018-07-28T07:05:49.012Z,40.07
2018-07-28T07:08:18.176Z,34.23
2018-07-28T07:10:47.282Z,25.57
2018-07-28T07:13:16.400Z,21.27
2018-07-28T07:15:45.508Z,22.57
2018-07-28T07:18:14.604Z,18.80
2018-07-28T07:20:43.804Z,14.13
2018-07-28T07:23:13.010Z,14.93
2018-07-28T07:25:42.209Z,13.17
2018-07-28T07:28:11.354Z,15.30
2018-07-28T07:30:40.428Z,13.90
2018-07-28T07:33:09.584Z,17.30
2018-07-28T07:35:38.799Z,14.37
2018-07-28T07:38:07.935Z,16.73
2018-07-28T07:40:37.394Z,17.70
2018-07-28T07:43:06.776Z,10.17
2018-07-28T07:45:35.896Z,12.50
2018-07-28T07:48:05.083Z,17.00
2018-07-28T07:50:34.500Z,11.53
2018-07-28T07:53:03.676Z,18.50
2018-07-28T07:55:32.880Z,13.27
2018-07-28T07:58:02.510Z,15.43
2018-07-28T08:00:31.634Z,12.77
2018-07-28T08:03:00.754Z,14.23
2018-07-28T08:05:29.858Z,14.20
2018-07-28T08:07:59.180Z,20.30
2018-07-28T08:10:28.368Z,11.63
2018-07-28T08:12:57.588Z,9.17
2018-07-28T08:15:26.762Z,10.60
2018-07-28T08:17:55.991Z,10.43
2018-07-28T08:20:25.175Z,8.03
2018-07-28T08:22:54.354Z,10.37
2018-07-28T08:25:23.676Z,8.27
2018-07-28T08:27:52.825Z,13.73
2018-07-28T08:30:21.946Z,11.63
2018-07-28T08:32:51.164Z,11.33
2018-07-28T08:35:20.329Z,11.40
2018-07-28T08:37:49.516Z,11.07
2018-07-28T08:40:18.955Z,9.83
2018-07-28T08:42:48.234Z,9.40
2018-07-28T08:45:17.707Z,12.93
2018-07-28T08:47:46.866Z,13.70
2018-07-28T08:50:16.027Z,13.17
2018-07-28T08:52:45.237Z,19.00
2018-07-28T08:55:14.395Z,9.40
2018-07-28T08:57:43.532Z,8.97
2018-07-28T09:00:12.754Z,73.23
2018-07-28T09:02:41.983Z,42.10
2018-07-28T09:05:11.106Z,23.37
2018-07-28T09:07:40.302Z,16.80
2018-07-28T09:10:09.444Z,16.03
2018-07-28T09:12:38.642Z,18.70
2018-07-28T09:15:08.902Z,13.57
2018-07-28T09:17:38.104Z,8.53
2018-07-28T09:20:08.143Z,10.10
2018-07-28T09:22:37.555Z,11.67
2018-07-28T09:25:07.431Z,5.57
2018-07-28T09:27:36.658Z,5.27
2018-07-28T09:30:06.613Z,5.40
2018-07-28T09:32:35.800Z,5.57
2018-07-28T09:35:05.071Z,9.87
2018-07-28T09:37:34.207Z,7.97
2018-07-28T09:40:03.469Z,10.63
2018-07-28T09:42:32.601Z,11.10
2018-07-28T09:45:01.826Z,13.50
2018-07-28T09:47:31.310Z,12.27
2018-07-28T09:50:00.528Z,11.97
2018-07-28T09:52:29.861Z,7.73
2018-07-28T09:55:00.047Z,8.40
2018-07-28T09:57:29.240Z,8.80
2018-07-28T09:59:58.526Z,8.17
2018-07-28T10:02:28.037Z,8.67
2018-07-28T10:04:57.238Z,7.67
2018-07-28T10:07:26.428Z,11.87
2018-07-28T10:09:55.637Z,10.43
2018-07-28T10:12:24.750Z,9.37
2018-07-28T10:14:55.277Z,9.73
2018-07-28T10:17:24.962Z,9.40
2018-07-28T10:19:54.118Z,10.27
2018-07-28T10:22:23.387Z,10.40
2018-07-28T10:24:52.531Z,11.07
2018-07-28T10:27:21.859Z,10.50
2018-07-28T10:29:51.067Z,8.70
2018-07-28T10:32:20.235Z,9.17
2018-07-28T10:34:49.439Z,7.87
2018-07-28T10:37:18.740Z,10.77
2018-07-28T10:39:48.155Z,14.53
2018-07-28T10:42:17.286Z,9.87
2018-07-28T10:44:46.358Z,10.37
2018-07-28T10:47:15.483Z,11.67
2018-07-28T10:49:44.588Z,8.77
2018-07-28T10:52:13.699Z,8.10
2018-07-28T10:54:42.856Z,9.93
2018-07-28T10:57:12.010Z,6.27
2018-07-28T10:59:41.215Z,6.63
2018-07-28T11:02:10.375Z,6.90
2018-07-28T11:04:39.506Z,6.30
2018-07-28T11:07:08.586Z,6.53
2018-07-28T11:09:37.691Z,6.47
2018-07-28T11:12:06.806Z,6.30
2018-07-28T11:14:35.879Z,7.13
2018-07-28T11:17:05.532Z,5.40
2018-07-28T11:19:34.706Z,6.07
2018-07-28T11:22:03.882Z,6.67
2018-07-28T11:24:33.095Z,6.13
2018-07-28T11:27:02.276Z,7.73
2018-07-28T11:29:31.459Z,6.07
2018-07-28T11:33:11.664Z,4.70
2018-07-28T11:35:52.243Z,4.93
2018-07-28T11:38:32.530Z,5.83
2018-07-28T11:41:13.027Z,4.10
2018-07-28T11:43:53.563Z,6.43
2018-07-28T11:46:22.871Z,6.97
2018-07-28T11:48:52.215Z,6.27
2018-07-28T11:51:21.302Z,6.67
2018-07-28T11:53:50.627Z,8.63
2018-07-28T11:56:19.791Z,7.03
2018-07-28T11:58:48.876Z,5.90
2018-07-28T12:01:17.991Z,7.40
2018-07-28T12:03:47.098Z,7.87
2018-07-28T12:06:16.369Z,6.03
2018-07-28T12:08:45.462Z,6.73
2018-07-28T12:11:14.694Z,7.63
2018-07-28T12:13:43.931Z,8.00
2018-07-28T12:16:13.087Z,8.23
2018-07-28T12:18:42.194Z,8.30
2018-07-28T12:21:11.299Z,8.87
2018-07-28T12:23:40.393Z,6.37
2018-07-28T12:26:09.488Z,7.90
2018-07-28T12:28:38.515Z,6.93
2018-07-28T12:31:07.677Z,7.87
2018-07-28T12:33:36.735Z,5.83
2018-07-28T12:36:06.447Z,10.67
2018-07-28T12:38:35.583Z,8.57
2018-07-28T12:41:04.907Z,7.13
2018-07-28T12:43:34.243Z,8.10
2018-07-28T12:46:03.314Z,10.90
2018-07-28T12:48:32.607Z,8.20
2018-07-28T12:51:01.880Z,11.00
2018-07-28T12:53:30.962Z,10.30
2018-07-28T12:56:00.079Z,8.43
2018-07-28T12:58:29.194Z,8.97
2018-07-28T13:00:58.339Z,5.87
2018-07-28T13:03:27.595Z,8.33
2018-07-28T13:05:56.733Z,7.10
2018-07-28T13:08:25.951Z,6.13
2018-07-28T13:10:55.240Z,5.77
2018-07-28T13:13:24.541Z,10.77
2018-07-28T13:15:53.733Z,8.67
2018-07-28T13:18:22.839Z,9.33
2018-07-28T13:20:51.940Z,8.97
2018-07-28T13:23:21.141Z,11.73
2018-07-28T13:25:50.203Z,7.97
2018-07-28T13:28:19.295Z,5.10
2018-07-28T13:30:48.428Z,9.10
2018-07-28T13:33:17.531Z,7.13
2018-07-28T13:35:46.719Z,9.60
2018-07-28T13:38:16.050Z,10.87
2018-07-28T13:40:45.298Z,7.23
2018-07-28T13:43:14.485Z,7.43
2018-07-28T13:45:43.548Z,8.77
2018-07-28T13:48:12.851Z,8.37
2018-07-28T13:50:41.987Z,8.43
2018-07-28T13:53:11.187Z,7.67
2018-07-28T13:55:40.180Z,9.23
2018-07-28T13:58:09.267Z,8.77
2018-07-28T14:00:38.486Z,7.67
2018-07-28T14:03:07.688Z,6.27
2018-07-28T14:05:36.779Z,7.70
2018-07-28T14:08:05.905Z,11.63
2018-07-28T14:10:35.003Z,9.03
2018-07-28T14:13:04.151Z,10.73
2018-07-28T14:15:33.239Z,10.43
2018-07-28T14:18:02.409Z,7.83
2018-07-28T14:20:31.555Z,6.30
2018-07-28T14:23:00.727Z,7.40
2018-07-28T14:25:30.052Z,7.47
2018-07-28T14:27:59.243Z,8.90
2018-07-28T14:30:28.315Z,5.10
2018-07-28T14:32:57.385Z,5.70
2018-07-28T14:35:26.456Z,7.93
2018-07-28T14:37:55.647Z,7.33
2018-07-28T14:40:24.717Z,4.33
2018-07-28T14:42:53.907Z,6.47
2018-07-28T14:45:23.022Z,6.37
2018-07-28T14:47:52.180Z,4.87
2018-07-28T14:50:21.427Z,6.43
2018-07-28T14:52:50.628Z,8.03
2018-07-28T14:55:19.776Z,5.30
2018-07-28T14:57:49.006Z,8.43
2018-07-28T15:00:18.839Z,8.47
2018-07-28T15:02:47.974Z,7.20
2018-07-28T15:05:17.374Z,8.13
2018-07-28T15:07:46.530Z,8.80
2018-07-28T15:10:15.612Z,6.43
2018-07-28T15:12:44.689Z,5.17
2018-07-28T15:15:13.764Z,6.90
2018-07-28T15:17:42.918Z,7.10
2018-07-28T15:20:12.042Z,7.23
2018-07-28T15:22:41.160Z,4.47
2018-07-28T15:25:10.243Z,7.67
2018-07-28T15:27:39.473Z,6.83
2018-07-28T15:30:09.413Z,10.97
2018-07-28T15:32:38.471Z,6.70
2018-07-28T15:35:07.594Z,5.87
2018-07-28T15:37:36.825Z,6.63
2018-07-28T15:40:05.911Z,8.40
2018-07-28T15:42:35.020Z,6.03
2018-07-28T15:45:04.669Z,4.63
2018-07-28T15:47:33.795Z,3.43
2018-07-28T15:50:02.979Z,11.03
2018-07-28T15:52:32.088Z,5.03
2018-07-28T15:55:01.271Z,4.80
2018-07-28T15:57:30.491Z,5.07
2018-07-28T15:59:59.615Z,4.60
2018-07-28T16:02:28.683Z,5.77
2018-07-28T16:04:58.050Z,7.37
2018-07-28T16:07:27.161Z,5.23
2018-07-28T16:09:56.251Z,4.23
2018-07-28T16:12:25.443Z,7.13
2018-07-28T16:14:54.516Z,5.63
2018-07-28T16:17:23.617Z,8.93
2018-07-28T16:19:52.708Z,8.30
2018-07-28T16:22:21.851Z,7.87
2018-07-28T16:24:50.963Z,4.47
2018-07-28T16:27:20.138Z,7.97
2018-07-28T16:29:49.237Z,7.77
2018-07-28T16:32:18.331Z,4.70
2018-07-28T16:34:47.423Z,6.17
2018-07-28T16:37:16.522Z,6.57
2018-07-28T16:39:51.060Z,6.67
2018-07-28T16:42:20.229Z,6.70
2018-07-28T16:44:49.395Z,5.63
2018-07-28T16:47:18.615Z,5.60
2018-07-28T16:49:47.755Z,7.63
2018-07-28T16:52:16.886Z,4.20
2018-07-28T16:54:46.236Z,5.27
2018-07-28T16:57:15.435Z,6.67
2018-07-28T16:59:44.595Z,10.50
2018-07-28T17:02:13.674Z,3.90
2018-07-28T17:04:42.821Z,7.47
2018-07-28T17:07:11.990Z,5.50
2018-07-28T17:09:41.211Z,6.87
2018-07-28T17:12:10.304Z,7.23
2018-07-28T17:14:39.356Z,5.97
2018-07-28T17:17:08.475Z,9.97
2018-07-28T17:19:37.612Z,7.07
2018-07-28T17:22:06.682Z,8.87
2018-07-28T17:24:35.774Z,7.77
2018-07-28T17:27:04.904Z,7.83
2018-07-28T17:29:34.078Z,7.73
2018-07-28T17:32:03.156Z,6.47
2018-07-28T17:34:32.263Z,5.83
2018-07-28T17:37:01.480Z,9.03
2018-07-28T17:39:30.579Z,5.30
2018-07-28T17:41:59.771Z,6.00
2018-07-28T17:44:28.839Z,5.63
2018-07-28T17:46:57.926Z,7.87
2018-07-28T17:49:27.076Z,3.07
2018-07-28T17:51:56.147Z,6.40
2018-07-28T17:54:25.213Z,8.27
2018-07-28T17:56:54.292Z,6.57
2018-07-28T17:59:23.375Z,7.77
2018-07-28T18:01:52.545Z,7.43
2018-07-28T18:04:21.629Z,7.53
2018-07-28T18:06:50.771Z,6.07
2018-07-28T18:09:19.875Z,8.80
2018-07-28T18:11:49.288Z,10.70
2018-07-28T18:14:18.441Z,6.60
2018-07-28T18:16:47.600Z,4.67
2018-07-28T18:19:16.704Z,7.77
2018-07-28T18:21:45.754Z,6.40
2018-07-28T18:24:14.843Z,7.80
2018-07-28T18:26:43.962Z,6.03
2018-07-28T18:29:13.263Z,8.77
2018-07-28T18:31:42.332Z,6.13
2018-07-28T18:34:11.660Z,10.87
2018-07-28T18:36:40.766Z,7.27
2018-07-28T18:39:11.190Z,5.03
2018-07-28T18:41:40.462Z,9.27
2018-07-28T18:44:10.248Z,9.10
2018-07-28T18:46:39.446Z,6.73
2018-07-28T18:49:08.579Z,8.70
2018-07-28T18:51:37.668Z,7.07
2018-07-28T18:54:06.822Z,6.20
2018-07-28T18:56:35.886Z,6.97
2018-07-28T18:59:05.224Z,7.37
2018-07-28T19:01:34.367Z,5.60
2018-07-28T19:04:03.436Z,5.80
2018-07-28T19:06:32.530Z,9.30
2018-07-28T19:09:07.088Z,9.27
2018-07-28T19:11:36.208Z,9.13
2018-07-28T19:14:40.172Z,5.83
2018-07-28T19:17:09.247Z,7.17
2018-07-28T19:19:38.398Z,6.47
2018-07-28T19:22:12.972Z,6.77
2018-07-28T19:24:42.056Z,6.70
2018-07-28T19:27:11.136Z,8.47
2018-07-28T19:29:42.597Z,7.10
2018-07-28T19:32:11.804Z,7.60
2018-07-28T19:34:41.425Z,8.33
2018-07-28T19:37:15.879Z,5.67
2018-07-28T19:39:44.936Z,8.40
2018-07-28T19:42:19.339Z,8.67
2018-07-28T19:44:48.527Z,6.73
2018-07-28T19:47:17.741Z,9.77
2018-07-28T19:49:46.836Z,7.03
2018-07-28T19:52:16.024Z,5.93
2018-07-28T19:54:45.460Z,6.23
2018-07-28T19:57:14.701Z,8.43
2018-07-28T19:59:43.795Z,5.90
2018-07-28T20:02:12.895Z,7.97
2018-07-28T20:04:42.163Z,5.03
2018-07-28T20:07:11.306Z,7.90
2018-07-28T20:09:40.381Z,6.00
2018-07-28T20:12:09.486Z,6.57
2018-07-28T20:14:38.580Z,6.27
2018-07-28T20:17:07.736Z,9.07
2018-07-28T20:19:36.910Z,4.60
2018-07-28T20:22:06.282Z,7.27
2018-07-28T20:24:35.382Z,8.13
2018-07-28T20:27:04.476Z,6.33
2018-07-28T20:29:33.601Z,5.73
2018-07-28T20:32:02.986Z,5.00
2018-07-28T20:34:32.296Z,6.73
2018-07-28T20:37:01.492Z,7.07
2018-07-28T20:39:30.567Z,6.50
2018-07-28T20:42:01.424Z,5.10
2018-07-28T20:44:30.660Z,6.77
2018-07-28T20:46:59.820Z,7.83
2018-07-28T20:49:28.916Z,7.63
2018-07-28T20:51:58.002Z,4.90
2018-07-28T20:54:27.220Z,6.97
2018-07-28T20:56:56.315Z,6.80
2018-07-28T20:59:25.396Z,5.13
2018-07-28T21:01:54.674Z,6.60
2018-07-28T21:04:23.812Z,6.03
2018-07-28T21:06:53.434Z,6.57
2018-07-28T21:09:22.528Z,8.57
2018-07-28T21:11:51.614Z,7.30
2018-07-28T21:14:20.680Z,5.57
2018-07-28T21:16:49.931Z,6.10
2018-07-28T21:19:19.060Z,5.17
2018-07-28T21:21:48.171Z,6.10
2018-07-28T21:24:17.423Z,6.73
2018-07-28T21:26:46.510Z,7.23
2018-07-28T21:29:15.703Z,4.50
2018-07-28T21:31:44.796Z,6.17
2018-07-28T21:34:13.972Z,5.03
2018-07-28T21:36:43.077Z,4.97
2018-07-28T21:39:12.206Z,6.07
2018-07-28T21:41:41.296Z,5.87
2018-07-28T21:44:10.444Z,5.43
2018-07-28T21:46:39.559Z,4.50
2018-07-28T21:49:08.671Z,5.20
2018-07-28T21:51:37.769Z,4.83
2018-07-28T21:54:06.954Z,4.07
2018-07-28T21:56:36.055Z,7.67
2018-07-28T21:59:05.231Z,6.43
2018-07-28T22:01:34.325Z,7.13
2018-07-28T22:04:04.007Z,5.90
2018-07-28T22:06:34.414Z,4.33
2018-07-28T22:09:03.615Z,5.33
2018-07-28T22:11:32.756Z,6.87
2018-07-28T22:14:02.619Z,4.67
2018-07-28T22:16:31.883Z,4.63
2018-07-28T22:19:01.110Z,3.93
2018-07-28T22:21:30.287Z,9.27
2018-07-28T22:23:59.524Z,3.67
2018-07-28T22:26:28.730Z,6.63
2018-07-28T22:28:57.854Z,7.97
2018-07-28T22:31:27.079Z,6.97
2018-07-28T22:33:56.225Z,6.60
2018-07-28T22:36:25.303Z,3.57
2018-07-28T22:38:54.471Z,5.00
2018-07-28T22:41:23.642Z,8.63
2018-07-28T22:43:53.003Z,6.50
2018-07-28T22:46:22.134Z,6.83
2018-07-28T22:48:51.339Z,6.40
2018-07-28T22:51:20.579Z,6.70
2018-07-28T22:53:49.730Z,6.60
2018-07-28T22:56:18.902Z,4.80
2018-07-28T22:58:48.027Z,5.20
2018-07-28T23:01:17.307Z,5.43
2018-07-28T23:03:46.611Z,6.33
2018-07-28T23:06:15.686Z,8.27
2018-07-28T23:08:44.810Z,5.97
2018-07-28T23:11:13.977Z,6.67
2018-07-28T23:13:43.046Z,6.53
2018-07-28T23:16:12.215Z,5.77
2018-07-28T23:18:41.425Z,5.37
2018-07-28T23:21:10.574Z,8.37
2018-07-28T23:23:39.703Z,5.90
2018-07-28T23:26:08.909Z,3.27
2018-07-28T23:28:38.054Z,7.40
2018-07-28T23:31:07.199Z,4.53
2018-07-28T23:33:36.255Z,5.57
2018-07-28T23:36:05.474Z,6.67
2018-07-28T23:38:34.684Z,4.87
2018-07-28T23:41:03.866Z,5.50
2018-07-28T23:43:32.946Z,4.70
2018-07-28T23:46:02.105Z,4.60
2018-07-28T23:48:31.312Z,3.63
2018-07-28T23:51:00.655Z,4.73
2018-07-28T23:53:29.754Z,3.43
2018-07-28T23:55:58.863Z,6.97
2018-07-28T23:58:27.935Z,5.67
